X  Stänga Metar väderdata för luftfart     EBBR Brussels Airport
Temperatur
4°C Temperatur
3°C Daggpunkt
93% Fuktighet



Vind
13 KM/T
8 MPH
4 M/S
7 KTS



210°
SSV
Nuvarande omständigheter

Ljus Regnskurar Regn Ljus Regnskurar Regn
Tryck 995.94 (hPa) - 29.41 (inHg)
Synlighet 6 (mil) - 9.7 (km)
Flygplats
Flygplatskod EBBR

Plats: Brussels Airport
Distans: 14 (km)

Metar:
EBBR 240620Z 21007KT 9999 -SHRA SCT012TCU BKN025 04/03 Q0996 NOSIG

Tid: 24-02-2024 07:20 CET